Terminal Aerodrome Forecast
Issued by NWS

Home | Current Version | Previous Version | Text Only | Print | Product List | Glossary On
Versions: 1 2 3 4 5 6 7 8 9 10 11 12 13
000
FTUS46 KSTO 231130
TAFSAC
TAF
KSAC 231130Z 2312/2412 12005KT P6SM FEW100 OVC200
     FM231600 VRB05KT P6SM FEW050 SCT250
     FM232300 22009G17KT P6SM BKN150=

USA.gov is the U.S. government's official web portal to all federal, state and local government web resources and services.